createdAt,value
2023-04-25T00:00:19.388Z,0.64
2023-04-25T00:01:19.397Z,0.54
2023-04-25T00:02:19.439Z,0.65
2023-04-25T00:03:19.574Z,0.72
2023-04-25T00:04:19.691Z,0.85
2023-04-25T00:05:19.577Z,0.42
2023-04-25T00:06:19.421Z,0.73
2023-04-25T00:07:19.404Z,0.79
2023-04-25T00:08:19.409Z,0.52
2023-04-25T00:09:19.428Z,0.61
2023-04-25T00:10:19.436Z,0.85
2023-04-25T00:11:19.432Z,0.68
2023-04-25T00:12:19.427Z,0.48
2023-04-25T00:13:19.437Z,0.84
2023-04-25T00:14:19.443Z,0.45
2023-04-25T00:15:19.445Z,0.65
2023-04-25T00:16:19.461Z,0.58
2023-04-25T00:17:19.443Z,0.53
2023-04-25T00:18:19.448Z,0.75
2023-04-25T00:19:19.458Z,0.72
2023-04-25T00:20:19.448Z,0.48
2023-04-25T00:21:19.479Z,0.48
2023-04-25T00:22:19.466Z,0.59
2023-04-25T00:23:19.482Z,0.80
2023-04-25T00:24:19.509Z,0.61
2023-04-25T00:25:19.484Z,0.41
2023-04-25T00:26:19.500Z,0.71
2023-04-25T00:27:19.481Z,0.54
2023-04-25T00:28:19.490Z,0.74
2023-04-25T00:29:19.495Z,0.63
2023-04-25T00:30:19.490Z,0.67
2023-04-25T00:31:19.538Z,0.57
2023-04-25T00:32:19.492Z,0.40
2023-04-25T00:33:19.506Z,0.72
2023-04-25T00:34:19.525Z,0.65
2023-04-25T00:35:19.513Z,0.58
2023-04-25T00:36:19.524Z,0.71
2023-04-25T00:37:19.515Z,0.45
2023-04-25T00:38:19.529Z,0.61
2023-04-25T00:39:19.534Z,0.58
2023-04-25T00:40:19.549Z,0.55
2023-04-25T00:41:19.562Z,0.64
2023-04-25T00:42:19.560Z,0.54
2023-04-25T00:43:19.564Z,0.42
2023-04-25T00:44:19.577Z,0.53
2023-04-25T00:45:19.573Z,0.79
2023-04-25T00:46:19.582Z,0.57
2023-04-25T00:47:19.590Z,0.60
2023-04-25T00:48:19.597Z,0.65
2023-04-25T00:49:19.610Z,0.56
2023-04-25T00:50:19.600Z,0.58
2023-04-25T00:51:19.608Z,0.52
2023-04-25T00:52:19.609Z,0.64
2023-04-25T00:53:19.618Z,0.55
2023-04-25T00:54:19.624Z,0.45
2023-04-25T00:55:19.630Z,0.66
2023-04-25T00:56:19.642Z,0.98
2023-04-25T00:57:19.646Z,0.49
2023-04-25T00:58:19.654Z,0.78
2023-04-25T00:59:19.663Z,0.96
2023-04-25T01:00:19.662Z,0.55
2023-04-25T01:01:19.737Z,0.50
2023-04-25T01:02:19.789Z,0.74
2023-04-25T01:03:19.841Z,0.59
2023-04-25T01:04:19.855Z,0.53
2023-04-25T01:05:19.682Z,0.61
2023-04-25T01:06:19.696Z,0.64
2023-04-25T01:07:19.692Z,0.47
2023-04-25T01:08:19.698Z,0.58
2023-04-25T01:09:19.709Z,0.54
2023-04-25T01:10:19.712Z,0.66
2023-04-25T01:11:19.723Z,0.41
2023-04-25T01:12:19.729Z,0.57
2023-04-25T01:13:19.729Z,1.35
2023-04-25T01:14:19.753Z,0.73
2023-04-25T01:15:19.738Z,0.79
2023-04-25T01:16:19.805Z,0.43
2023-04-25T01:17:19.762Z,0.83
2023-04-25T01:18:19.771Z,0.53
2023-04-25T01:19:19.791Z,0.54
2023-04-25T01:20:19.788Z,0.59
2023-04-25T01:21:19.788Z,0.46
2023-04-25T01:22:19.796Z,0.54
2023-04-25T01:23:19.810Z,0.49
2023-04-25T01:24:19.824Z,0.76
2023-04-25T01:25:19.835Z,0.83
2023-04-25T01:26:19.838Z,0.61
2023-04-25T01:27:19.845Z,0.63
2023-04-25T01:28:19.857Z,0.55
2023-04-25T01:29:19.861Z,0.68
2023-04-25T01:30:19.876Z,0.56
2023-04-25T01:31:19.953Z,0.72
2023-04-25T01:32:19.971Z,0.53
2023-04-25T01:33:19.877Z,1.11
2023-04-25T01:34:19.879Z,0.63
2023-04-25T01:35:19.881Z,0.58
2023-04-25T01:36:19.915Z,0.77
2023-04-25T01:37:19.904Z,0.66
2023-04-25T01:38:19.908Z,0.70
2023-04-25T01:39:19.894Z,0.69
2023-04-25T01:40:19.884Z,0.64
2023-04-25T01:41:19.881Z,0.54
2023-04-25T01:42:19.879Z,0.72
2023-04-25T01:43:19.860Z,0.61
2023-04-25T01:44:19.861Z,0.34
2023-04-25T01:45:19.829Z,0.56
2023-04-25T01:46:19.814Z,0.69
2023-04-25T01:47:19.740Z,1.18
2023-04-25T01:48:19.685Z,0.59
2023-04-25T01:49:19.638Z,0.78
2023-04-25T01:50:19.607Z,0.42
2023-04-25T01:51:19.552Z,0.98
2023-04-25T01:52:19.514Z,0.69
2023-04-25T01:53:19.474Z,0.70
2023-04-25T01:54:19.405Z,0.48
2023-04-25T01:55:19.360Z,0.59
2023-04-25T01:56:19.309Z,0.52
2023-04-25T01:57:19.272Z,0.64
2023-04-25T01:58:19.227Z,0.68
2023-04-25T01:59:19.193Z,0.64
2023-04-25T02:00:19.146Z,0.50
2023-04-25T02:01:19.245Z,0.58
2023-04-25T02:02:19.144Z,0.61
2023-04-25T02:03:19.125Z,0.61
2023-04-25T02:04:19.243Z,0.90
2023-04-25T02:05:18.953Z,0.61
2023-04-25T02:06:18.922Z,0.67
2023-04-25T02:07:18.885Z,0.78
2023-04-25T02:08:18.867Z,0.39
2023-04-25T02:09:18.846Z,1.15
2023-04-25T02:10:18.827Z,0.48
2023-04-25T02:11:18.799Z,0.69
2023-04-25T02:12:18.776Z,0.55
2023-04-25T02:13:18.753Z,0.65
2023-04-25T02:14:18.732Z,0.78
2023-04-25T02:15:18.690Z,0.59
2023-04-25T02:16:18.708Z,0.60
2023-04-25T02:17:18.664Z,0.61
2023-04-25T02:18:18.656Z,0.69
2023-04-25T02:19:19.245Z,0.38
2023-04-25T02:20:18.562Z,0.50
2023-04-25T02:21:18.514Z,0.65
2023-04-25T02:22:18.483Z,0.77
2023-04-25T02:23:18.459Z,0.51
2023-04-25T02:24:18.435Z,0.64
2023-04-25T02:25:18.404Z,0.58
2023-04-25T02:26:18.391Z,0.67
2023-04-25T02:27:18.368Z,0.77
2023-04-25T02:28:18.353Z,0.48
2023-04-25T02:29:18.340Z,0.55
2023-04-25T02:30:18.300Z,0.44
2023-04-25T02:31:18.322Z,0.65
2023-04-25T02:32:18.256Z,0.40
2023-04-25T02:33:18.225Z,0.52
2023-04-25T02:34:18.205Z,0.52
2023-04-25T02:35:18.169Z,0.49
2023-04-25T02:36:18.148Z,0.38
2023-04-25T02:37:18.117Z,0.49
2023-04-25T02:38:18.099Z,0.81
2023-04-25T02:39:18.059Z,0.51
2023-04-25T02:40:18.036Z,0.66
2023-04-25T02:41:18.013Z,0.60
2023-04-25T02:42:17.986Z,0.44
2023-04-25T02:43:17.961Z,0.50
2023-04-25T02:44:17.929Z,0.52
2023-04-25T02:45:17.900Z,0.65
2023-04-25T02:46:25.513Z,0.52
2023-04-25T02:47:18.831Z,0.66
2023-04-25T02:48:17.844Z,0.57
2023-04-25T02:49:17.756Z,0.58
2023-04-25T02:50:17.709Z,0.45
2023-04-25T02:51:17.670Z,0.72
2023-04-25T02:52:17.601Z,0.83
2023-04-25T02:53:17.572Z,0.42
2023-04-25T02:54:17.535Z,0.35
2023-04-25T02:55:17.497Z,0.53
2023-04-25T02:56:17.445Z,0.52
2023-04-25T02:57:17.403Z,0.63
2023-04-25T02:58:17.364Z,0.60
2023-04-25T02:59:17.321Z,1.00
2023-04-25T03:00:17.276Z,0.40
2023-04-25T03:01:17.275Z,0.57
2023-04-25T03:02:17.197Z,0.51
2023-04-25T03:03:17.257Z,0.44
2023-04-25T03:04:17.140Z,0.53
2023-04-25T03:05:17.048Z,0.56
2023-04-25T03:06:17.065Z,0.59
2023-04-25T03:07:16.973Z,0.68
2023-04-25T03:08:16.917Z,0.46
2023-04-25T03:09:16.886Z,0.60
2023-04-25T03:10:16.837Z,0.49
2023-04-25T03:11:16.782Z,0.51
2023-04-25T03:12:16.746Z,0.73
2023-04-25T03:13:16.725Z,0.56
2023-04-25T03:14:16.700Z,0.60
2023-04-25T03:15:16.690Z,0.84
2023-04-25T03:16:16.742Z,0.46
2023-04-25T03:17:16.653Z,0.40
2023-04-25T03:18:16.651Z,0.62
2023-04-25T03:19:16.628Z,0.63
2023-04-25T03:20:16.602Z,0.61
2023-04-25T03:21:16.972Z,0.52
2023-04-25T03:22:16.581Z,0.89
2023-04-25T03:23:16.549Z,0.68
2023-04-25T03:24:16.524Z,0.78
2023-04-25T03:25:16.503Z,0.45
2023-04-25T03:26:16.499Z,0.55
2023-04-25T03:27:16.477Z,0.65
2023-04-25T03:28:16.453Z,0.65
2023-04-25T03:29:16.435Z,0.60
2023-04-25T03:30:16.419Z,0.37
2023-04-25T03:31:16.400Z,0.68
2023-04-25T03:32:16.422Z,0.74
2023-04-25T03:33:16.370Z,0.58
2023-04-25T03:34:16.346Z,0.61
2023-04-25T03:35:16.340Z,0.48
2023-04-25T03:36:16.309Z,0.68
2023-04-25T03:37:16.296Z,0.63
2023-04-25T03:38:16.291Z,0.77
2023-04-25T03:39:16.273Z,0.39
2023-04-25T03:40:16.242Z,0.41
2023-04-25T03:41:16.230Z,0.50
2023-04-25T03:42:16.207Z,0.46
2023-04-25T03:43:16.195Z,0.47
2023-04-25T03:44:16.176Z,0.36
2023-04-25T03:45:16.160Z,0.50
2023-04-25T03:46:16.189Z,0.42
2023-04-25T03:47:16.116Z,0.55
2023-04-25T03:48:16.099Z,0.69
2023-04-25T03:49:17.832Z,0.60
2023-04-25T03:50:16.054Z,0.51
2023-04-25T03:51:15.989Z,0.73
2023-04-25T03:52:15.954Z,0.40
2023-04-25T03:53:15.896Z,0.70
2023-04-25T03:54:15.860Z,0.77
2023-04-25T03:55:15.824Z,0.45
2023-04-25T03:56:15.778Z,0.45
2023-04-25T03:57:15.733Z,0.47
2023-04-25T03:58:15.675Z,0.51
2023-04-25T03:59:15.643Z,0.38
2023-04-25T04:00:15.579Z,0.58
2023-04-25T04:01:15.540Z,0.52
2023-04-25T04:02:15.554Z,0.98
2023-04-25T04:03:15.531Z,0.49
2023-04-25T04:04:15.720Z,0.59
2023-04-25T04:05:15.422Z,0.66
2023-04-25T04:06:15.301Z,0.51
2023-04-25T04:07:15.256Z,0.33
2023-04-25T04:08:15.212Z,0.42
2023-04-25T04:09:15.175Z,0.54
2023-04-25T04:10:15.129Z,0.90
2023-04-25T04:11:15.097Z,0.56
2023-04-25T04:12:15.025Z,0.49
2023-04-25T04:13:14.976Z,0.67
2023-04-25T04:14:14.927Z,0.48
2023-04-25T04:15:14.885Z,0.44
2023-04-25T04:16:14.871Z,0.53
2023-04-25T04:17:14.789Z,0.65
2023-04-25T04:18:14.735Z,0.76
2023-04-25T04:19:14.685Z,0.68
2023-04-25T04:20:14.638Z,0.38
2023-04-25T04:21:14.596Z,0.49
2023-04-25T04:22:14.579Z,0.52
2023-04-25T04:23:14.499Z,0.32
2023-04-25T04:24:14.456Z,0.66
2023-04-25T04:25:14.421Z,0.51
2023-04-25T04:26:14.368Z,0.39
2023-04-25T04:27:14.348Z,0.49
2023-04-25T04:28:14.319Z,0.51
2023-04-25T04:29:14.226Z,0.58
2023-04-25T04:30:14.190Z,0.50
2023-04-25T04:31:14.193Z,0.75
2023-04-25T04:32:14.105Z,0.51
2023-04-25T04:33:14.100Z,0.57
2023-04-25T04:34:14.017Z,0.59
2023-04-25T04:35:13.970Z,0.34
2023-04-25T04:36:13.918Z,0.59
2023-04-25T04:37:13.864Z,0.50
2023-04-25T04:38:13.818Z,0.39
2023-04-25T04:39:13.780Z,0.48
2023-04-25T04:40:13.741Z,0.55
2023-04-25T04:41:13.707Z,0.58
2023-04-25T04:42:13.670Z,0.62
2023-04-25T04:43:13.623Z,0.54
2023-04-25T04:44:13.574Z,0.43
2023-04-25T04:45:13.521Z,0.41
2023-04-25T04:46:13.545Z,0.43
2023-04-25T04:47:13.450Z,0.32
2023-04-25T04:48:13.455Z,0.66
2023-04-25T04:49:13.370Z,0.83
2023-04-25T04:50:13.319Z,0.63
2023-04-25T04:51:13.269Z,0.68
2023-04-25T04:52:13.227Z,0.60
2023-04-25T04:53:13.189Z,0.36
2023-04-25T04:54:13.140Z,0.50
2023-04-25T04:55:13.098Z,0.51
2023-04-25T04:56:13.063Z,0.46
2023-04-25T04:57:13.023Z,0.50
2023-04-25T04:58:12.981Z,0.44
2023-04-25T04:59:12.930Z,0.52
2023-04-25T05:00:12.875Z,0.56
2023-04-25T05:01:12.882Z,0.57
2023-04-25T05:02:12.807Z,0.41
2023-04-25T05:03:12.855Z,0.63
2023-04-25T05:04:12.896Z,0.44
2023-04-25T05:05:12.665Z,0.64
2023-04-25T05:06:12.627Z,0.48
2023-04-25T05:07:12.588Z,0.58
2023-04-25T05:08:12.544Z,0.49
2023-04-25T05:09:12.505Z,0.44
2023-04-25T05:10:12.457Z,0.64
2023-04-25T05:11:12.407Z,0.62
2023-04-25T05:12:12.402Z,0.50
2023-04-25T05:13:12.366Z,0.46
2023-04-25T05:14:12.347Z,0.59
2023-04-25T05:15:12.350Z,0.60
2023-04-25T05:16:12.329Z,0.44
2023-04-25T05:17:12.310Z,0.32
2023-04-25T05:18:12.305Z,0.54
2023-04-25T05:19:12.266Z,0.61
2023-04-25T05:20:12.248Z,0.66
2023-04-25T05:21:12.216Z,0.56
2023-04-25T05:22:12.205Z,0.49
2023-04-25T05:23:12.174Z,0.45
2023-04-25T05:24:12.167Z,0.68
2023-04-25T05:25:12.212Z,1.01
2023-04-25T05:26:12.136Z,1.65
2023-04-25T05:27:12.153Z,1.97
2023-04-25T05:28:12.146Z,2.30
2023-04-25T05:29:12.151Z,2.39
2023-04-25T05:30:12.164Z,2.16
2023-04-25T05:31:12.182Z,2.75
2023-04-25T05:32:12.279Z,2.63
2023-04-25T05:33:12.256Z,2.51
2023-04-25T05:34:12.243Z,2.07
2023-04-25T05:35:12.280Z,1.45
2023-04-25T05:36:12.236Z,1.78
2023-04-25T05:37:12.231Z,1.93
2023-04-25T05:38:12.216Z,1.87
2023-04-25T05:39:12.189Z,2.03
2023-04-25T05:40:12.151Z,1.92
2023-04-25T05:41:12.093Z,1.71
2023-04-25T05:42:12.061Z,1.89
2023-04-25T05:43:12.069Z,1.99
2023-04-25T05:44:12.077Z,2.08
2023-04-25T05:45:12.070Z,1.90
2023-04-25T05:46:12.108Z,1.86
2023-04-25T05:47:12.063Z,1.70
2023-04-25T05:48:12.072Z,2.12
2023-04-25T05:49:12.038Z,2.03
2023-04-25T05:50:12.038Z,1.78
2023-04-25T05:51:12.042Z,1.95
2023-04-25T05:52:12.039Z,1.60
2023-04-25T05:53:12.045Z,2.03
2023-04-25T05:54:12.035Z,1.46
2023-04-25T05:55:12.046Z,1.46
2023-04-25T05:56:12.037Z,1.50
2023-04-25T05:57:12.013Z,1.89
2023-04-25T05:58:12.013Z,1.55
2023-04-25T05:59:11.989Z,1.64
2023-04-25T06:00:12.019Z,1.89
2023-04-25T06:01:12.736Z,1.77
2023-04-25T06:02:11.959Z,1.62
2023-04-25T06:03:12.040Z,1.76
2023-04-25T06:04:12.037Z,2.05
2023-04-25T06:05:12.111Z,2.02
2023-04-25T06:06:11.798Z,1.73
2023-04-25T06:07:11.768Z,1.56
2023-04-25T06:08:11.744Z,1.78
2023-04-25T06:09:13.326Z,1.67
2023-04-25T06:10:11.816Z,1.50
2023-04-25T06:11:11.771Z,1.79
2023-04-25T06:12:11.720Z,1.51
2023-04-25T06:13:11.726Z,1.60
2023-04-25T06:14:11.673Z,1.39
2023-04-25T06:15:24.532Z,1.88
2023-04-25T06:16:12.577Z,1.37
2023-04-25T06:17:11.464Z,1.66
2023-04-25T06:18:11.394Z,1.74
2023-04-25T06:19:11.313Z,1.79
2023-04-25T06:20:11.245Z,1.93
2023-04-25T06:21:11.177Z,1.50
2023-04-25T06:22:11.089Z,2.24
2023-04-25T06:23:11.032Z,1.49
2023-04-25T06:24:10.959Z,2.04
2023-04-25T06:25:10.936Z,2.08
2023-04-25T06:26:10.850Z,1.65
2023-04-25T06:27:10.764Z,1.88
2023-04-25T06:28:10.726Z,1.74
2023-04-25T06:29:10.625Z,1.60
2023-04-25T06:30:10.598Z,2.00
2023-04-25T06:31:10.521Z,1.77
2023-04-25T06:32:10.506Z,1.42
2023-04-25T06:33:10.406Z,1.45
2023-04-25T06:34:10.303Z,1.73
2023-04-25T06:35:10.253Z,1.92
2023-04-25T06:36:10.222Z,1.89
2023-04-25T06:37:10.199Z,1.45
2023-04-25T06:38:10.206Z,1.72
2023-04-25T06:39:10.190Z,2.20
2023-04-25T06:40:10.192Z,1.98
2023-04-25T06:41:10.154Z,1.57
2023-04-25T06:42:10.146Z,1.62
2023-04-25T06:43:10.140Z,1.73
2023-04-25T06:44:10.121Z,1.85
2023-04-25T06:45:10.103Z,1.82
2023-04-25T06:46:10.110Z,1.87
2023-04-25T06:47:10.113Z,2.22
2023-04-25T06:48:10.159Z,1.71
2023-04-25T06:49:10.090Z,2.92
2023-04-25T06:50:10.077Z,1.78
2023-04-25T06:51:10.074Z,1.72
2023-04-25T06:52:10.075Z,1.74
2023-04-25T06:53:10.082Z,1.67
2023-04-25T06:54:10.093Z,1.49
2023-04-25T06:55:10.081Z,2.36
2023-04-25T06:56:10.102Z,1.59
2023-04-25T06:57:10.087Z,1.79
2023-04-25T06:58:10.102Z,1.65
2023-04-25T06:59:10.101Z,1.23
2023-04-25T07:00:10.104Z,2.21
2023-04-25T07:01:10.167Z,1.80
2023-04-25T07:02:10.174Z,1.52
2023-04-25T07:03:10.221Z,1.55
2023-04-25T07:04:10.477Z,2.00
2023-04-25T07:05:10.146Z,1.53
2023-04-25T07:06:10.168Z,1.64
2023-04-25T07:07:10.180Z,1.42
2023-04-25T07:08:10.199Z,1.30
2023-04-25T07:09:10.208Z,1.53
2023-04-25T07:10:10.204Z,1.24
2023-04-25T07:11:10.208Z,1.40
2023-04-25T07:12:10.214Z,2.00
2023-04-25T07:13:10.225Z,1.65
2023-04-25T07:14:10.226Z,1.36
2023-04-25T07:15:10.236Z,1.73
2023-04-25T07:16:10.276Z,1.45
2023-04-25T07:17:10.249Z,1.43
2023-04-25T07:18:10.259Z,1.47
2023-04-25T07:19:10.181Z,1.88
2023-04-25T07:20:10.157Z,2.35
2023-04-25T07:21:10.113Z,2.38
2023-04-25T07:22:10.096Z,2.49
2023-04-25T07:23:10.107Z,2.26
2023-04-25T07:24:10.120Z,2.22
2023-04-25T07:25:10.140Z,2.77
2023-04-25T07:26:10.165Z,2.18
2023-04-25T07:27:10.181Z,2.17
2023-04-25T07:28:10.197Z,1.79
2023-04-25T07:29:10.213Z,2.34
2023-04-25T07:30:10.232Z,2.21
2023-04-25T07:31:10.266Z,2.12
2023-04-25T07:32:10.341Z,2.58
2023-04-25T07:33:10.381Z,2.02
2023-04-25T07:34:10.371Z,2.12
2023-04-25T07:35:10.366Z,1.69
2023-04-25T07:36:10.380Z,2.24
2023-04-25T07:37:10.377Z,1.63
2023-04-25T07:38:10.371Z,1.83
2023-04-25T07:39:10.380Z,2.80
2023-04-25T07:40:10.371Z,2.73
2023-04-25T07:41:10.354Z,1.98
2023-04-25T07:42:10.336Z,1.92
2023-04-25T07:43:10.310Z,2.14
2023-04-25T07:44:10.265Z,2.37
2023-04-25T07:45:10.222Z,2.01
2023-04-25T07:46:10.217Z,1.62
2023-04-25T07:47:10.173Z,1.61
2023-04-25T07:48:10.134Z,1.65
2023-04-25T07:49:10.119Z,1.80
2023-04-25T07:50:10.101Z,1.92
2023-04-25T07:51:10.074Z,1.94
2023-04-25T07:52:10.852Z,1.77
2023-04-25T07:53:10.040Z,2.15
2023-04-25T07:54:10.030Z,1.69
2023-04-25T07:55:10.015Z,1.91
2023-04-25T07:56:10.018Z,1.55
2023-04-25T07:57:09.987Z,1.61
2023-04-25T07:58:09.965Z,1.76
2023-04-25T07:59:09.944Z,1.46
2023-04-25T08:00:09.935Z,1.92
2023-04-25T08:01:09.905Z,2.01
2023-04-25T08:02:09.930Z,1.77
2023-04-25T08:03:11.083Z,1.52
2023-04-25T08:04:09.924Z,1.46
2023-04-25T08:05:09.955Z,1.44
2023-04-25T08:06:10.013Z,1.39
2023-04-25T08:07:10.838Z,1.32
2023-04-25T08:08:09.759Z,1.49
2023-04-25T08:09:09.760Z,2.26
2023-04-25T08:10:09.712Z,1.87
2023-04-25T08:11:09.698Z,1.82
2023-04-25T08:12:09.677Z,1.29
2023-04-25T08:13:09.653Z,1.35
2023-04-25T08:14:09.656Z,1.41
2023-04-25T08:15:09.599Z,1.64
2023-04-25T08:16:09.653Z,1.88
2023-04-25T08:17:09.510Z,1.41
2023-04-25T08:18:09.512Z,2.00
2023-04-25T08:19:09.452Z,2.50
2023-04-25T08:20:09.434Z,2.47
2023-04-25T08:21:09.416Z,2.50
2023-04-25T08:22:09.404Z,2.33
2023-04-25T08:23:09.371Z,3.34
2023-04-25T08:24:09.374Z,2.11
2023-04-25T08:25:09.351Z,2.61
2023-04-25T08:26:09.332Z,2.99
2023-04-25T08:27:09.330Z,2.90
2023-04-25T08:28:09.323Z,2.07
2023-04-25T08:29:09.330Z,2.81
2023-04-25T08:30:09.298Z,2.00
2023-04-25T08:31:09.292Z,2.26
2023-04-25T08:32:09.209Z,2.50
2023-04-25T08:33:09.267Z,1.88
2023-04-25T08:34:09.146Z,2.58
2023-04-25T08:35:09.121Z,2.15
2023-04-25T08:36:09.086Z,2.31
2023-04-25T08:37:09.031Z,2.25
2023-04-25T08:38:08.997Z,2.06
2023-04-25T08:39:08.947Z,1.91
2023-04-25T08:40:08.945Z,2.02
2023-04-25T08:41:09.381Z,1.90
2023-04-25T08:42:08.868Z,2.10
2023-04-25T08:43:08.895Z,2.31
2023-04-25T08:44:08.889Z,2.03
2023-04-25T08:45:08.888Z,2.18
2023-04-25T08:46:08.893Z,1.96
2023-04-25T08:47:10.065Z,2.29
2023-04-25T08:48:08.940Z,1.93
2023-04-25T08:49:08.831Z,2.49
2023-04-25T08:50:08.813Z,2.48
2023-04-25T08:52:08.749Z,4.80
2023-04-25T08:53:08.812Z,5.02
2023-04-25T08:54:12.921Z,5.27
2023-04-25T08:55:09.575Z,7.43
2023-04-25T08:56:08.515Z,9.85
2023-04-25T08:57:08.436Z,11.89
2023-04-25T08:58:08.368Z,13.13
2023-04-25T08:59:08.295Z,14.42
2023-04-25T09:00:08.241Z,12.99
2023-04-25T09:01:08.190Z,16.57
2023-04-25T09:02:08.098Z,17.02
2023-04-25T09:03:08.236Z,14.47
2023-04-25T09:04:08.133Z,17.31
2023-04-25T09:05:07.900Z,17.00
2023-04-25T09:06:07.825Z,15.12
2023-04-25T09:07:07.773Z,18.42
2023-04-25T09:08:07.697Z,15.90
2023-04-25T09:09:07.863Z,18.43
2023-04-25T09:10:07.600Z,13.44
2023-04-25T09:11:07.558Z,14.46
2023-04-25T09:12:07.515Z,14.28
2023-04-25T09:13:07.508Z,13.38
2023-04-25T09:14:07.491Z,15.74
2023-04-25T09:15:07.504Z,18.15
2023-04-25T09:16:07.472Z,14.64
2023-04-25T09:17:07.459Z,13.75
2023-04-25T09:18:07.474Z,12.55
2023-04-25T09:19:07.411Z,14.14
2023-04-25T09:20:07.409Z,16.85
2023-04-25T09:21:12.957Z,23.98
2023-04-25T09:22:08.332Z,29.86
2023-04-25T09:23:07.266Z,23.73
2023-04-25T09:24:07.188Z,25.06
2023-04-25T09:25:07.885Z,26.74
2023-04-25T09:26:07.044Z,30.81
2023-04-25T09:27:06.969Z,32.58
2023-04-25T09:28:06.903Z,38.06
2023-04-25T09:29:06.857Z,42.03
2023-04-25T09:30:06.768Z,43.14
2023-04-25T09:31:06.709Z,40.99
2023-04-25T09:32:06.723Z,39.81
2023-04-25T09:33:06.773Z,36.47
2023-04-25T09:34:06.710Z,41.54
2023-04-25T09:35:06.719Z,45.83
2023-04-25T09:36:06.719Z,41.14
2023-04-25T09:37:06.688Z,40.31
2023-04-25T09:38:06.686Z,41.40
2023-04-25T09:39:06.683Z,42.30
2023-04-25T09:40:06.678Z,40.02
2023-04-25T09:41:06.667Z,33.96
2023-04-25T09:42:06.656Z,37.17
2023-04-25T09:43:06.656Z,35.58
2023-04-25T09:44:06.634Z,36.37
2023-04-25T09:45:06.666Z,39.56
2023-04-25T09:46:06.641Z,37.39
2023-04-25T09:47:06.598Z,36.09
2023-04-25T09:48:06.681Z,40.44
2023-04-25T09:49:06.592Z,33.39
2023-04-25T09:50:06.565Z,40.40
2023-04-25T09:51:06.572Z,34.93
2023-04-25T09:52:06.545Z,32.65
2023-04-25T09:53:06.540Z,34.83
2023-04-25T09:54:06.523Z,35.63
2023-04-25T09:55:06.496Z,34.91
2023-04-25T09:56:06.481Z,30.65
2023-04-25T09:57:06.463Z,32.96
2023-04-25T09:58:06.444Z,34.73
2023-04-25T09:59:06.427Z,31.13
2023-04-25T10:00:06.392Z,27.63
2023-04-25T10:01:06.409Z,36.07
2023-04-25T10:02:06.358Z,32.81
2023-04-25T10:03:06.404Z,31.61
2023-04-25T10:04:06.396Z,26.72
2023-04-25T10:05:06.404Z,29.67
2023-04-25T10:06:06.275Z,35.32
2023-04-25T10:07:06.238Z,27.44
2023-04-25T10:08:06.217Z,31.26
2023-04-25T10:09:06.212Z,35.98
2023-04-25T10:10:06.188Z,30.94
2023-04-25T10:11:06.258Z,34.19
2023-04-25T10:12:06.147Z,41.07
2023-04-25T10:13:06.150Z,48.95
2023-04-25T10:14:06.122Z,57.60
2023-04-25T10:15:06.084Z,47.21
2023-04-25T10:16:06.095Z,48.09
2023-04-25T10:17:06.034Z,47.80
2023-04-25T10:18:06.022Z,58.67
2023-04-25T10:19:05.940Z,55.64
2023-04-25T10:20:05.874Z,54.50
2023-04-25T10:21:05.833Z,56.97
2023-04-25T10:22:05.749Z,53.05
2023-04-25T10:23:05.694Z,47.89
2023-04-25T10:24:05.621Z,52.96
2023-04-25T10:25:05.586Z,48.23
2023-04-25T10:26:05.518Z,49.10
2023-04-25T10:27:05.537Z,55.65
2023-04-25T10:28:05.436Z,50.11
2023-04-25T10:29:05.383Z,44.81
2023-04-25T10:30:05.482Z,51.67
2023-04-25T10:31:05.363Z,51.62
2023-04-25T10:32:05.260Z,45.80
2023-04-25T10:33:05.206Z,49.85
2023-04-25T10:34:05.165Z,45.06
2023-04-25T10:35:05.098Z,47.74
2023-04-25T10:36:05.015Z,51.61
2023-04-25T10:37:04.956Z,43.44
2023-04-25T10:38:04.885Z,46.22
2023-04-25T10:39:04.829Z,46.81
2023-04-25T10:40:04.769Z,45.18
2023-04-25T10:41:04.696Z,55.75
2023-04-25T10:42:04.624Z,47.27
2023-04-25T10:43:04.583Z,42.78
2023-04-25T10:44:04.507Z,47.21
2023-04-25T10:45:04.453Z,48.18
2023-04-25T10:46:04.455Z,43.65
2023-04-25T10:47:04.478Z,40.66
2023-04-25T10:48:04.294Z,47.59
2023-04-25T10:49:04.191Z,42.16
2023-04-25T10:50:04.138Z,44.42
2023-04-25T10:51:04.079Z,43.52
2023-04-25T10:52:04.032Z,39.92
2023-04-25T10:53:04.008Z,43.27
2023-04-25T10:54:03.992Z,40.34
2023-04-25T10:55:03.963Z,41.24
2023-04-25T10:56:03.942Z,45.97
2023-04-25T10:57:03.914Z,40.15
2023-04-25T10:58:03.894Z,43.05
2023-04-25T10:59:03.878Z,41.93
2023-04-25T11:00:03.842Z,40.20
2023-04-25T11:01:03.875Z,36.72
2023-04-25T11:02:03.941Z,33.58
2023-04-25T11:03:03.881Z,40.14
2023-04-25T11:04:03.830Z,33.68
2023-04-25T11:05:03.751Z,34.21
2023-04-25T11:06:03.699Z,35.09
2023-04-25T11:07:07.135Z,34.66
2023-04-25T11:08:07.853Z,43.64
2023-04-25T11:09:03.550Z,39.90
2023-04-25T11:10:03.498Z,43.05
2023-04-25T11:11:03.433Z,37.15
2023-04-25T11:12:03.427Z,35.11
2023-04-25T11:13:03.294Z,42.55
2023-04-25T11:14:03.217Z,38.58
2023-04-25T11:15:03.172Z,35.83
2023-04-25T11:16:12.299Z,34.31
2023-04-25T11:17:03.105Z,33.93
2023-04-25T11:18:03.022Z,35.93
2023-04-25T11:19:02.911Z,40.75
2023-04-25T11:20:02.858Z,37.63
2023-04-25T11:21:02.797Z,36.37
2023-04-25T11:22:02.752Z,35.87
2023-04-25T11:24:02.621Z,34.30
2023-04-25T11:25:02.556Z,42.62
2023-04-25T11:26:02.483Z,34.19
2023-04-25T11:27:02.426Z,32.00
2023-04-25T11:28:02.519Z,31.30
2023-04-25T11:29:02.296Z,36.82
2023-04-25T11:30:02.232Z,35.72
2023-04-25T11:31:02.161Z,37.41
2023-04-25T11:32:02.368Z,36.37
2023-04-25T11:33:02.119Z,30.64
2023-04-25T11:34:02.106Z,30.36
2023-04-25T11:35:02.108Z,37.26
2023-04-25T11:36:02.084Z,29.09
2023-04-25T11:37:02.072Z,28.93
2023-04-25T11:38:02.061Z,34.09
2023-04-25T11:39:02.073Z,30.25
2023-04-25T11:40:02.068Z,27.52
2023-04-25T11:41:02.491Z,27.50
2023-04-25T11:42:02.239Z,31.96
2023-04-25T11:43:02.979Z,32.34
2023-04-25T11:44:01.967Z,30.05
2023-04-25T11:45:01.866Z,30.24
2023-04-25T11:46:01.869Z,36.12
2023-04-25T11:47:01.772Z,28.04
2023-04-25T11:48:01.725Z,31.24
2023-04-25T11:49:01.644Z,30.58
2023-04-25T11:50:01.604Z,34.24
2023-04-25T11:51:01.545Z,26.44
2023-04-25T11:52:01.478Z,32.25
2023-04-25T11:53:01.447Z,32.13
2023-04-25T11:54:01.369Z,29.50
2023-04-25T11:55:01.361Z,33.32
2023-04-25T11:56:01.361Z,29.45
2023-04-25T11:57:01.363Z,28.53
2023-04-25T11:58:01.400Z,28.01
2023-04-25T11:59:01.367Z,23.25
2023-04-25T12:00:01.341Z,30.71
2023-04-25T12:01:01.345Z,26.26
2023-04-25T12:02:01.330Z,25.77
2023-04-25T12:03:01.623Z,26.43
2023-04-25T12:04:01.576Z,24.66
2023-04-25T12:05:15.822Z,24.49
2023-04-25T12:06:02.525Z,28.75
2023-04-25T12:07:01.350Z,27.47
2023-04-25T12:08:01.183Z,25.87
2023-04-25T12:09:01.061Z,26.53
2023-04-25T12:10:00.982Z,26.73
2023-04-25T12:11:00.916Z,24.03
2023-04-25T12:12:00.854Z,26.17
2023-04-25T12:13:00.782Z,28.90
2023-04-25T12:14:00.729Z,27.56
2023-04-25T12:15:01.079Z,27.63
2023-04-25T12:16:00.662Z,26.93
2023-04-25T12:17:00.681Z,24.54
2023-04-25T12:18:00.664Z,25.22
2023-04-25T12:19:00.645Z,24.92
2023-04-25T12:20:00.652Z,25.84
2023-04-25T12:21:00.645Z,22.41
2023-04-25T12:22:00.648Z,22.55
2023-04-25T12:23:00.649Z,22.88
2023-04-25T12:24:00.642Z,22.50
2023-04-25T12:25:00.650Z,22.24
2023-04-25T12:26:00.628Z,21.67
2023-04-25T12:27:00.629Z,22.92
2023-04-25T12:28:00.629Z,23.03
2023-04-25T12:29:00.640Z,20.62
2023-04-25T12:30:00.781Z,19.45
2023-04-25T12:31:00.739Z,23.14
2023-04-25T12:32:00.700Z,22.53
2023-04-25T12:33:00.695Z,18.68
2023-04-25T12:34:00.646Z,20.60
2023-04-25T12:35:00.671Z,19.63
2023-04-25T12:36:00.649Z,17.01
2023-04-25T12:37:00.660Z,19.47
2023-04-25T12:38:00.663Z,21.47
2023-04-25T12:39:00.658Z,20.94
2023-04-25T12:40:01.529Z,21.39
2023-04-25T12:41:00.668Z,20.94
2023-04-25T12:42:00.691Z,22.06
2023-04-25T12:43:00.674Z,26.41
2023-04-25T12:44:00.666Z,19.80
2023-04-25T12:45:01.041Z,21.57
2023-04-25T12:46:00.666Z,18.25
2023-04-25T12:47:00.844Z,22.25
2023-04-25T12:48:02.003Z,20.42
2023-04-25T12:49:11.544Z,23.01
2023-04-25T12:50:01.584Z,31.39
2023-04-25T12:51:00.520Z,20.72
2023-04-25T12:52:00.453Z,20.37
2023-04-25T12:53:00.411Z,22.80
2023-04-25T12:54:00.331Z,23.63
2023-04-25T12:55:00.293Z,23.00
2023-04-25T12:56:00.254Z,21.70
2023-04-25T12:57:00.207Z,20.91
2023-04-25T12:58:00.141Z,19.12
2023-04-25T12:59:00.080Z,19.01
2023-04-25T13:00:00.083Z,21.34
2023-04-25T13:01:00.152Z,19.90
2023-04-25T13:02:00.204Z,18.51
2023-04-25T13:03:00.409Z,16.78
2023-04-25T13:04:00.215Z,18.23
2023-04-25T13:05:00.150Z,22.41
2023-04-25T13:06:00.179Z,23.64
2023-04-25T13:07:00.146Z,18.11
2023-04-25T13:08:00.175Z,17.36
2023-04-25T13:09:00.167Z,19.68
2023-04-25T13:10:00.209Z,19.69
2023-04-25T13:11:00.212Z,18.80